Time;durP1;ratioP1;P1;durP2;ratioP2;P2;SDS_P1;SDS_P2;PMS_P1;PMS_P2;Temp;Humidity;BMP_temperature;BMP_pressure;BME280_temperature;BME280_humidity;BME280_pressure;Samples;Min_cycle;Max_cycle;Signal;HPM_P1;HPM_P2
2023/07/25 00:01:18;;;;;;;37.38;15.88;;;;;;;26.78;63.42;99987.97;4921882;28;20078;-80
2023/07/25 00:03:47;;;;;;;31.05;15.57;;;;;;;28.37;60.28;100070.81;4917170;28;20242;-80
2023/07/25 00:06:14;;;;;;;42.47;16.88;;;;;;;28.32;60.23;100026.03;4931976;28;20413;-79
2023/07/25 00:08:44;;;;;;;36.88;16.10;;;;;;;28.18;61.03;100052.22;4922821;28;20050;-81
2023/07/25 00:11:15;;;;;;;36.45;16.65;;;;;;;28.50;58.86;100010.31;4921763;28;20164;-82
2023/07/25 00:13:42;;;;;;;29.83;15.20;;;;;;;28.71;59.36;100039.25;4916458;28;20182;-82
2023/07/25 00:16:11;;;;;;;35.75;14.93;;;;;;;29.05;58.45;100016.91;4937776;28;20054;-81
2023/07/25 00:18:38;;;;;;;33.70;16.40;;;;;;;28.30;58.83;99964.63;4924213;28;20384;-80
2023/07/25 00:21:06;;;;;;;37.67;17.50;;;;;;;27.91;60.46;99995.88;4888814;28;20564;-81
2023/07/25 00:23:33;;;;;;;34.42;15.98;;;;;;;28.42;59.90;99991.66;4913555;28;20399;-82
2023/07/25 00:26:00;;;;;;;33.72;15.27;;;;;;;28.69;59.12;99996.94;4901606;28;20473;-79
2023/07/25 00:28:27;;;;;;;31.55;16.20;;;;;;;28.49;59.89;100014.91;4881604;28;20736;-81
2023/07/25 00:31:06;;;;;;;29.52;14.95;;;;;;;28.63;59.24;100001.56;4900205;28;20495;-79
2023/07/25 00:33:35;;;;;;;34.85;16.38;;;;;;;28.93;58.89;100033.59;4915688;28;20454;-81
2023/07/25 00:36:02;;;;;;;32.10;15.98;;;;;;;29.08;57.92;100027.34;4923498;28;20144;-80
2023/07/25 00:38:32;;;;;;;35.30;15.02;;;;;;;28.98;58.40;100011.72;4955205;28;20100;-82
2023/07/25 00:40:58;;;;;;;31.73;15.52;;;;;;;28.40;59.00;99963.81;4946894;28;20137;-81
2023/07/25 00:43:30;;;;;;;28.75;15.35;;;;;;;28.19;58.92;99895.56;4940086;28;20521;-81
2023/07/25 00:46:00;;;;;;;33.70;15.93;;;;;;;29.04;57.66;99971.56;4935578;28;20046;-79
2023/07/25 00:48:30;;;;;;;38.17;16.05;;;;;;;29.08;57.80;99960.91;4955245;28;20485;-80
2023/07/25 00:50:57;;;;;;;31.10;15.82;;;;;;;28.68;58.34;99946.97;4936133;28;20075;-81
2023/07/25 00:53:28;;;;;;;36.70;16.88;;;;;;;28.48;59.08;99955.97;4906317;28;20677;-80
2023/07/25 00:56:01;;;;;;;31.25;15.98;;;;;;;28.93;58.53;99954.34;4914060;28;20528;-79
2023/07/25 00:58:32;;;;;;;29.25;14.63;;;;;;;29.02;58.30;99957.34;4898462;28;20402;-80
2023/07/25 01:01:07;;;;;;;28.65;15.27;;;;;;;29.20;57.30;99955.97;4897490;28;20646;-80
2023/07/25 01:03:36;;;;;;;29.83;15.43;;;;;;;29.02;57.79;99962.81;4901448;28;20050;-80
2023/07/25 01:06:05;;;;;;;31.20;15.45;;;;;;;28.81;58.48;99981.09;4931149;28;20394;-79
2023/07/25 01:08:32;;;;;;;26.55;14.55;;;;;;;28.45;59.09;99963.81;4929033;28;20073;-80
2023/07/25 01:10:59;;;;;;;33.83;16.15;;;;;;;28.30;58.94;99957.28;4916483;28;20231;-80
2023/07/25 01:13:25;;;;;;;37.72;16.85;;;;;;;28.00;59.97;99989.91;4932815;28;20459;-79
2023/07/25 01:15:53;;;;;;;38.85;16.77;;;;;;;27.83;60.04;100001.84;4913743;28;20693;-81
2023/07/25 01:18:25;;;;;;;31.25;15.00;;;;;;;27.76;61.52;100000.41;4910061;28;20478;-80
2023/07/25 01:20:59;;;;;;;27.95;15.25;;;;;;;27.55;61.67;99989.41;4902687;28;20361;-82
2023/07/25 01:23:36;;;;;;;28.13;14.40;;;;;;;27.71;61.78;100026.56;4934350;28;20046;-82
2023/07/25 01:26:07;;;;;;;37.75;16.48;;;;;;;27.74;61.70;100040.75;4902197;28;20274;-82
2023/07/25 01:28:39;;;;;;;33.63;16.08;;;;;;;27.77;61.41;100016.50;4933248;28;20081;-81
2023/07/25 01:31:12;;;;;;;27.55;15.13;;;;;;;28.36;60.53;100003.69;4902696;28;20116;-80
2023/07/25 01:33:43;;;;;;;35.42;15.05;;;;;;;28.88;58.38;99973.47;4910159;28;20257;-79
2023/07/25 01:36:10;;;;;;;32.03;14.63;;;;;;;28.48;58.53;99972.34;4924076;28;20054;-81
2023/07/25 01:38:37;;;;;;;30.10;15.00;;;;;;;28.66;58.60;99949.13;4924532;28;20139;-81
2023/07/25 01:41:03;;;;;;;31.67;15.02;;;;;;;29.05;57.79;99885.75;4948204;28;20525;-79
2023/07/25 01:43:30;;;;;;;29.02;14.25;;;;;;;28.92;57.41;99821.56;4939664;28;20142;-80
2023/07/25 01:46:04;;;;;;;33.17;15.48;;;;;;;28.21;59.33;99942.50;4914689;28;20137;-81
2023/07/25 01:48:32;;;;;;;30.63;14.48;;;;;;;27.89;60.01;99951.69;4926888;28;20425;-79
2023/07/25 01:50:58;;;;;;;33.17;14.57;;;;;;;27.84;59.06;99991.75;4955000;28;20046;-81
2023/07/25 01:53:25;;;;;;;26.42;14.40;;;;;;;27.47;60.33;99933.44;4959421;28;20058;-80
2023/07/25 01:55:53;;;;;;;33.90;14.38;;;;;;;27.35;60.79;99930.13;4956651;28;20129;-81
2023/07/25 01:58:19;;;;;;;30.60;14.38;;;;;;;28.12;59.64;99911.38;4918021;28;20158;-79
2023/07/25 02:00:46;;;;;;;27.15;13.77;;;;;;;27.89;59.27;99910.78;4881953;28;20133;-80
2023/07/25 02:03:15;;;;;;;31.08;13.60;;;;;;;27.45;59.67;99911.13;4909670;28;20054;-81
2023/07/25 02:05:47;;;;;;;26.30;13.73;;;;;;;27.96;60.29;99890.59;4958795;28;20055;-82
2023/07/25 02:08:21;;;;;;;39.55;13.90;;;;;;;27.27;60.42;99846.16;4985288;28;20041;-82
2023/07/25 02:10:53;;;;;;;26.88;13.82;;;;;;;27.32;60.76;99886.25;4973189;28;20053;-81
2023/07/25 02:13:20;;;;;;;30.33;14.50;;;;;;;27.23;61.02;99888.63;4976480;28;20871;-80
2023/07/25 02:15:46;;;;;;;33.13;12.70;;;;;;;27.85;60.56;99852.38;4971920;28;20413;-81
2023/07/25 02:18:13;;;;;;;26.23;13.32;;;;;;;28.18;59.14;99839.38;4968416;28;20050;-80
2023/07/25 02:20:40;;;;;;;33.47;14.80;;;;;;;28.21;57.88;99866.09;4968098;28;20339;-81
2023/07/25 02:23:06;;;;;;;22.65;12.50;;;;;;;27.90;59.66;99843.41;4950460;28;20557;-81
2023/07/25 02:25:38;;;;;;;30.20;12.27;;;;;;;28.22;58.41;99826.81;4945718;28;20046;-81
2023/07/25 02:28:13;;;;;;;23.17;11.77;;;;;;;28.27;58.29;99813.16;4947280;28;20235;-80
2023/07/25 02:30:46;;;;;;;34.25;12.23;;;;;;;28.42;58.05;99811.50;4936538;28;20084;-81
2023/07/25 02:33:19;;;;;;;27.35;12.75;;;;;;;28.54;58.15;99810.16;4965172;28;20049;-80
2023/07/25 02:35:58;;;;;;;34.30;13.02;;;;;;;28.24;57.66;99823.81;4939494;28;20061;-81
2023/07/25 02:38:27;;;;;;;26.02;12.40;;;;;;;27.89;60.13;99842.59;4971425;28;20852;-79
2023/07/25 02:40:53;;;;;;;27.77;13.45;;;;;;;28.20;58.59;99848.06;4957695;28;20064;-80
2023/07/25 02:43:22;;;;;;;27.88;12.35;;;;;;;27.74;59.24;99845.22;4963218;28;20046;-80
2023/07/25 02:45:53;;;;;;;28.25;12.98;;;;;;;27.86;59.79;99837.66;4965279;28;20058;-81
2023/07/25 02:48:20;;;;;;;;;;;;;;;28.31;58.98;99830.63;4968971;28;20126;-79
2023/07/25 02:53:34;;;;;;;30.75;12.55;;;;;;;28.58;57.48;99764.03;4984745;28;20049;-79
2023/07/25 02:56:07;;;;;;;28.95;13.85;;;;;;;28.44;57.42;99785.56;4953117;28;20521;-81
2023/07/25 02:58:38;;;;;;;33.60;12.88;;;;;;;27.92;58.50;99795.69;4928854;28;20051;-80
2023/07/25 03:01:06;;;;;;;32.33;12.65;;;;;;;27.43;59.25;99762.53;4914924;28;20213;-78
2023/07/25 03:03:33;;;;;;;26.98;11.48;;;;;;;27.70;60.26;99789.63;4921815;28;20695;-78
2023/07/25 03:05:59;;;;;;;29.80;12.05;;;;;;;27.77;58.67;99697.47;4954709;28;20057;-77
2023/07/25 03:08:26;;;;;;;27.70;12.32;;;;;;;27.90;58.75;99707.84;4985917;28;20052;-79
2023/07/25 03:10:53;;;;;;;22.15;10.85;;;;;;;28.49;57.75;99746.56;4956948;28;20070;-80
2023/07/25 03:13:19;;;;;;;29.98;12.40;;;;;;;28.00;58.68;99761.59;4962767;28;20057;-80
2023/07/25 03:15:52;;;;;;;22.20;12.10;;;;;;;28.20;58.56;99755.31;4986781;28;20501;-79
2023/07/25 03:18:25;;;;;;;21.38;10.68;;;;;;;28.29;58.03;99711.91;4950092;28;20597;-78
2023/07/25 03:20:52;;;;;;;26.70;12.52;;;;;;;27.91;58.17;99714.97;4962165;28;20429;-80
2023/07/25 03:23:19;;;;;;;24.33;11.18;;;;;;;28.17;58.87;99728.56;4962399;28;20515;-80
2023/07/25 03:25:46;;;;;;;29.73;13.20;;;;;;;27.35;59.12;99682.13;4947569;28;20455;-82
2023/07/25 03:28:17;;;;;;;24.85;12.07;;;;;;;27.84;59.73;99751.75;4946122;28;20490;-80
2023/07/25 03:30:49;;;;;;;32.88;13.32;;;;;;;27.38;60.02;99717.03;4952049;28;20046;-79
2023/07/25 03:33:19;;;;;;;26.40;11.45;;;;;;;27.30;60.74;99716.75;4972066;28;20482;-79
2023/07/25 03:35:46;;;;;;;27.40;13.25;;;;;;;27.31;60.74;99749.19;4954236;28;20477;-79
2023/07/25 03:38:15;;;;;;;28.70;11.90;;;;;;;27.33;61.28;99781.59;4952245;28;20045;-80
2023/07/25 03:40:42;;;;;;;25.98;11.90;;;;;;;27.03;61.25;99789.34;4961120;28;20642;-77
2023/07/25 03:43:08;;;;;;;36.97;13.60;;;;;;;26.28;61.71;99698.78;4953743;28;20545;-79
2023/07/25 03:45:35;;;;;;;30.27;12.70;;;;;;;27.13;61.02;99753.16;4958572;28;20065;-78
2023/07/25 03:48:02;;;;;;;25.88;11.77;;;;;;;27.20;60.50;99769.28;4953853;28;20057;-77
2023/07/25 03:50:29;;;;;;;26.42;11.52;;;;;;;27.63;60.67;99805.41;4953899;28;20049;-78
2023/07/25 03:53:02;;;;;;;30.15;11.63;;;;;;;27.69;59.38;99745.16;4958124;28;20061;-78
2023/07/25 03:55:32;;;;;;;28.10;13.10;;;;;;;27.55;60.20;99759.56;4946031;28;20138;-81
2023/07/25 03:58:04;;;;;;;26.13;10.88;;;;;;;27.56;59.72;99721.16;4933893;28;20081;-80
2023/07/25 04:00:30;;;;;;;35.75;13.63;;;;;;;27.50;59.18;99675.88;4941403;28;20640;-78
2023/07/25 04:03:00;;;;;;;28.17;11.68;;;;;;;28.02;58.16;99660.41;4920926;28;20142;-80
2023/07/25 04:05:41;;;;;;;34.28;12.10;;;;;;;27.76;59.08;99635.81;4921313;28;20570;-78
2023/07/25 04:08:07;;;;;;;30.08;12.13;;;;;;;27.84;57.51;99653.56;4933073;28;20047;-80
2023/07/25 04:10:34;;;;;;;23.52;10.55;;;;;;;27.58;58.37;99606.41;4954507;28;20058;-79
2023/07/25 04:13:01;;;;;;;34.53;10.30;;;;;;;27.89;55.37;99638.03;4942482;28;20070;-80
2023/07/25 04:15:27;;;;;;;32.00;7.78;;;;;;;28.03;54.97;99668.28;4940090;28;20497;-79
2023/07/25 04:17:59;;;;;;;30.67;9.00;;;;;;;27.98;50.63;99645.66;4940165;28;20068;-80
2023/07/25 04:20:35;;;;;;;31.75;8.75;;;;;;;28.34;54.26;99720.91;4920294;28;20578;-80
2023/07/25 04:23:06;;;;;;;26.38;9.25;;;;;;;28.47;53.05;99725.03;4923691;28;20054;-80
2023/07/25 04:25:33;;;;;;;38.05;9.80;;;;;;;28.71;52.54;99733.41;4932261;28;20370;-79
2023/07/25 04:28:00;;;;;;;26.35;8.88;;;;;;;28.52;52.43;99729.63;4920511;28;20082;-80
2023/07/25 04:30:27;;;;;;;37.05;8.60;;;;;;;28.62;48.69;99718.72;4940268;28;20823;-81
2023/07/25 04:32:54;;;;;;;31.38;9.07;;;;;;;28.65;46.61;99709.94;4938278;28;20047;-79
2023/07/25 04:35:21;;;;;;;18.60;6.88;;;;;;;28.97;46.87;99777.03;4933893;28;20058;-79
2023/07/25 04:37:47;;;;;;;34.17;10.20;;;;;;;28.83;49.26;99778.72;4942642;28;20057;-81
2023/07/25 04:40:14;;;;;;;26.88;9.95;;;;;;;28.43;50.81;99748.47;4922984;28;20067;-79
2023/07/25 04:42:41;;;;;;;27.02;8.27;;;;;;;28.49;51.93;99801.16;4926593;29;20136;-80
2023/07/25 04:45:08;;;;;;;27.27;10.02;;;;;;;28.30;53.05;99836.34;4918101;29;20251;-80
2023/07/25 04:47:35;;;;;;;29.45;10.98;;;;;;;28.20;54.69;99848.06;4916978;28;20505;-80
2023/07/25 04:50:01;;;;;;;22.95;9.85;;;;;;;27.62;55.24;99809.22;4925684;28;20519;-78
2023/07/25 04:52:28;;;;;;;30.20;9.50;;;;;;;27.48;56.58;99760.66;4935217;28;20071;-79
2023/07/25 04:54:58;;;;;;;22.85;9.70;;;;;;;27.59;56.96;99703.44;4950208;28;20078;-80
2023/07/25 04:57:35;;;;;;;29.88;9.65;;;;;;;27.80;56.41;99666.91;4934551;28;20054;-80
2023/07/25 05:00:13;;;;;;;56.50;35.10;;;;;;;27.39;57.39;99688.69;4914923;29;20058;-79
2023/07/25 05:02:43;;;;;;;31.08;11.27;;;;;;;27.33;57.90;99774.22;4932900;28;20155;-78
2023/07/25 05:05:10;;;;;;;32.17;9.88;;;;;;;27.23;58.50;99834.13;4954997;28;20048;-78
2023/07/25 05:07:36;;;;;;;27.88;9.50;;;;;;;27.31;58.94;99898.19;4930654;28;20053;-79
2023/07/25 05:10:04;;;;;;;25.30;10.40;;;;;;;26.98;58.73;99906.44;4944760;28;20575;-81
2023/07/25 05:12:31;;;;;;;21.90;7.30;;;;;;;26.51;60.08;99928.91;4939312;28;20053;-78
2023/07/25 05:15:02;;;;;;;16.00;8.73;;;;;;;26.62;60.71;99982.38;4931015;28;20049;-80
2023/07/25 05:17:32;;;;;;;29.15;9.57;;;;;;;26.44;60.31;99959.03;4960789;28;20396;-79
2023/07/25 05:19:59;;;;;;;23.95;10.02;;;;;;;25.72;61.56;99949.22;4968518;28;20081;-78
2023/07/25 05:22:26;;;;;;;26.92;10.38;;;;;;;25.61;62.53;99988.22;4947832;28;20279;-78
2023/07/25 05:24:53;;;;;;;23.98;9.13;;;;;;;25.18;64.56;99978.88;4952836;28;20075;-78
2023/07/25 05:27:20;;;;;;;24.58;10.38;;;;;;;25.10;64.34;99973.84;4969869;28;20116;-79
2023/07/25 05:29:59;;;;;;;26.55;11.05;;;;;;;25.19;64.27;99991.38;4921069;28;20359;-79
2023/07/25 05:32:35;;;;;;;29.33;11.82;;;;;;;24.74;64.73;99962.41;4948926;28;20159;-80
2023/07/25 05:35:04;;;;;;;28.25;11.93;;;;;;;24.86;65.47;100020.16;4957608;28;20536;-79
2023/07/25 05:37:36;;;;;;;22.77;9.52;;;;;;;24.62;65.93;99942.66;4948381;28;20050;-79
2023/07/25 05:40:04;;;;;;;22.45;9.55;;;;;;;24.42;66.49;99884.22;4969450;28;20038;-80
2023/07/25 05:42:31;;;;;;;22.95;10.38;;;;;;;24.68;65.81;99982.34;4963289;28;20117;-80
2023/07/25 05:44:59;;;;;;;24.83;11.52;;;;;;;24.89;66.20;99970.78;4930367;28;20730;-80
2023/07/25 05:47:29;;;;;;;29.75;10.60;;;;;;;25.00;65.88;99898.47;4937634;28;20224;-79
2023/07/25 05:49:57;;;;;;;29.85;11.38;;;;;;;24.86;65.51;99872.75;4956771;28;20049;-80
2023/07/25 05:52:24;;;;;;;27.25;12.38;;;;;;;24.78;65.46;99936.38;4961071;28;20060;-81
2023/07/25 05:54:52;;;;;;;26.60;11.07;;;;;;;24.68;65.89;100012.22;4967981;28;20074;-80
2023/07/25 05:57:23;;;;;;;21.17;9.85;;;;;;;24.76;66.50;100078.84;4943064;28;20563;-80
2023/07/25 05:59:50;;;;;;;23.38;10.20;;;;;;;25.03;65.33;100041.06;4958034;28;20058;-80
2023/07/25 06:02:17;;;;;;;26.27;11.27;;;;;;;25.08;64.83;100022.97;4939823;28;20452;-80
2023/07/25 06:04:46;;;;;;;19.85;9.43;;;;;;;25.33;65.39;99965.53;4956593;28;20050;-80
2023/07/25 06:07:14;;;;;;;23.15;9.98;;;;;;;25.53;65.23;99923.41;4979576;28;20130;-79
2023/07/25 06:09:47;;;;;;;23.50;11.10;;;;;;;25.42;64.70;99937.94;4929628;28;20643;-80
2023/07/25 06:12:26;;;;;;;26.25;10.55;;;;;;;26.12;62.88;99917.34;4975950;28;20057;-79
2023/07/25 06:14:53;;;;;;;17.60;8.50;;;;;;;26.29;63.07;99939.00;4965506;28;20598;-79
2023/07/25 06:17:19;;;;;;;22.00;9.80;;;;;;;26.15;63.24;99954.94;4968562;28;20057;-80
2023/07/25 06:19:46;;;;;;;29.73;11.70;;;;;;;25.86;63.66;99902.66;4966696;28;20048;-80
2023/07/25 06:22:15;;;;;;;19.65;9.30;;;;;;;26.33;62.85;99934.69;4963959;28;20046;-79
2023/07/25 06:24:42;;;;;;;22.13;10.15;;;;;;;25.83;63.25;99969.22;4963889;28;20046;-79
2023/07/25 06:27:09;;;;;;;25.95;10.68;;;;;;;25.47;64.89;99986.94;4966757;28;20046;-79
2023/07/25 06:29:35;;;;;;;26.42;10.82;;;;;;;25.37;65.65;100010.16;4965289;28;20264;-80
2023/07/25 06:32:02;;;;;;;29.58;11.60;;;;;;;25.23;64.84;100003.41;4968260;28;20046;-79
2023/07/25 06:34:30;;;;;;;20.23;9.13;;;;;;;24.63;66.07;99900.88;4973034;28;20326;-80
2023/07/25 06:36:58;;;;;;;19.75;10.07;;;;;;;24.72;66.12;99943.63;4963073;28;20647;-79
2023/07/25 06:39:25;;;;;;;18.45;8.18;;;;;;;25.28;66.28;99930.13;4966183;28;20274;-80
2023/07/25 06:41:52;;;;;;;18.05;8.40;;;;;;;25.34;65.92;99912.00;4939519;28;20333;-79
2023/07/25 06:44:19;;;;;;;18.10;8.57;;;;;;;25.51;65.75;99831.28;4978209;28;20061;-78
2023/07/25 06:46:46;;;;;;;20.23;9.15;;;;;;;25.52;64.18;99849.22;4937755;28;20145;-80
2023/07/25 06:49:13;;;;;;;18.55;9.60;;;;;;;25.38;64.83;99864.25;4933496;28;20049;-80
2023/07/25 06:51:40;;;;;;;17.63;9.35;;;;;;;25.35;64.45;99892.75;4937078;28;20054;-79
2023/07/25 06:54:09;;;;;;;18.95;9.15;;;;;;;25.14;65.11;99812.03;4937477;28;20051;-79
2023/07/25 06:56:38;;;;;;;17.92;8.40;;;;;;;25.42;65.43;99848.28;4935972;28;20042;-79
2023/07/25 06:59:10;;;;;;;28.15;8.65;;;;;;;25.24;65.50;99793.16;4943335;28;20402;-79
2023/07/25 07:01:39;;;;;;;20.02;8.00;;;;;;;26.39;62.73;99786.75;4956038;28;20054;-79
2023/07/25 07:04:06;;;;;;;27.83;10.00;;;;;;;26.19;62.01;99793.66;4955520;28;20689;-77
2023/07/25 07:06:34;;;;;;;19.25;8.13;;;;;;;26.87;61.16;99768.59;4943630;28;20145;-78
2023/07/25 07:09:01;;;;;;;21.80;8.63;;;;;;;27.39;59.68;99769.63;4950076;28;20053;-76
2023/07/25 07:11:27;;;;;;;27.70;10.68;;;;;;;27.20;59.66;99759.22;4955170;28;20072;-79
2023/07/25 07:14:01;;;;;;;21.90;9.82;;;;;;;26.74;60.49;99769.03;4927226;28;20123;-78
2023/07/25 07:16:29;;;;;;;16.55;7.72;;;;;;;26.57;61.65;99756.41;4969891;28;20054;-78
2023/07/25 07:18:58;;;;;;;23.58;9.30;;;;;;;26.59;60.99;99765.13;4961487;28;20056;-79
2023/07/25 07:21:25;;;;;;;16.95;9.65;;;;;;;26.37;60.82;99753.53;4964034;28;20065;-78
2023/07/25 07:23:52;;;;;;;21.98;7.85;;;;;;;26.77;60.79;99782.94;4949861;28;20454;-77
2023/07/25 07:26:23;;;;;;;23.70;8.07;;;;;;;26.33;61.59;99799.47;4927092;28;20054;-78
2023/07/25 07:28:50;;;;;;;16.42;9.05;;;;;;;26.09;61.49;99815.31;4923792;28;20635;-76
2023/07/25 07:31:23;;;;;;;20.15;9.35;;;;;;;26.12;61.67;99839.31;4931230;28;20140;-78
2023/07/25 07:34:08;;;;;;;18.40;9.38;;;;;;;26.22;61.92;99787.69;4919510;28;20297;-78
2023/07/25 07:36:34;;;;;;;19.38;7.57;;;;;;;26.17;61.85;99765.91;4930452;28;20057;-78
2023/07/25 07:39:01;;;;;;;23.38;8.55;;;;;;;26.07;62.16;99764.97;4940424;28;20476;-78
2023/07/25 07:41:34;;;;;;;20.02;7.97;;;;;;;26.25;63.14;99794.53;4937126;28;20068;-78
2023/07/25 07:44:04;;;;;;;24.27;8.73;;;;;;;26.47;61.58;99791.69;4946926;28;20046;-76
2023/07/25 07:46:32;;;;;;;25.27;9.00;;;;;;;26.59;61.32;99808.69;4931366;28;20050;-78
2023/07/25 07:49:00;;;;;;;23.50;9.52;;;;;;;26.71;60.89;99808.50;4928503;28;20072;-77
2023/07/25 07:51:27;;;;;;;23.90;9.65;;;;;;;26.72;60.57;99792.97;4939238;28;20054;-77
2023/07/25 07:53:59;;;;;;;27.70;9.52;;;;;;;26.62;60.72;99791.81;4942668;28;20042;-78
2023/07/25 07:56:26;;;;;;;21.10;8.48;;;;;;;26.61;61.25;99741.19;4924467;28;20104;-77
2023/07/25 07:58:54;;;;;;;20.75;8.85;;;;;;;27.00;57.41;99767.28;4964269;28;20057;-78
2023/07/25 08:01:21;;;;;;;32.38;9.23;;;;;;;26.89;59.34;99758.22;4947598;28;20464;-80
2023/07/25 08:03:51;;;;;;;19.20;7.30;;;;;;;26.92;59.39;99756.88;4965750;28;20129;-79
2023/07/25 08:06:21;;;;;;;27.25;10.95;;;;;;;26.82;57.29;99763.09;4953643;28;20523;-77
2023/07/25 08:08:48;;;;;;;23.58;8.80;;;;;;;26.83;58.52;99781.88;4958633;28;20480;-78
2023/07/25 08:11:15;;;;;;;26.25;9.90;;;;;;;27.04;58.65;99811.94;4934218;28;20046;-79
2023/07/25 08:13:42;;;;;;;25.98;9.45;;;;;;;25.94;57.98;99620.22;4951683;28;20042;-80
2023/07/25 08:16:09;;;;;;;22.00;8.32;;;;;;;27.13;57.26;99807.63;4943685;28;20302;-78
2023/07/25 08:18:35;;;;;;;22.45;8.40;;;;;;;26.97;58.40;99793.13;4950431;28;20050;-76
2023/07/25 08:21:03;;;;;;;29.35;8.73;;;;;;;27.16;57.89;99773.59;4935738;28;20456;-78
2023/07/25 08:23:30;;;;;;;18.88;8.30;;;;;;;27.45;57.35;99834.81;4955761;28;20303;-78
2023/07/25 08:25:58;;;;;;;26.35;8.32;;;;;;;27.37;57.64;99846.19;4951990;28;20053;-79
2023/07/25 08:28:25;;;;;;;18.75;8.90;;;;;;;27.31;57.61;99846.44;4911799;28;20453;-79
2023/07/25 08:31:02;;;;;;;16.77;8.07;;;;;;;27.51;57.65;99848.44;4917691;28;20051;-79
2023/07/25 08:33:33;;;;;;;18.35;8.82;;;;;;;27.57;58.01;99858.25;4935126;28;20266;-79
2023/07/25 08:36:03;;;;;;;23.35;7.72;;;;;;;27.60;57.74;99894.00;4928872;28;20130;-79
2023/07/25 08:38:30;;;;;;;25.88;9.07;;;;;;;27.51;58.06;99892.06;4963133;28;20062;-79
2023/07/25 08:41:25;;;;;;;22.23;8.02;;;;;;;27.70;57.12;99961.41;4965042;28;20046;-79
2023/07/25 08:43:55;;;;;;;23.17;9.60;;;;;;;27.42;57.71;99952.50;4956594;28;20053;-79
2023/07/25 08:46:26;;;;;;;18.10;7.32;;;;;;;27.67;57.78;99991.91;4955499;28;20144;-79
2023/07/25 08:48:59;;;;;;;;;;;;;;;27.43;58.09;100005.09;4969583;28;20464;-79
2023/07/25 08:51:27;;;;;;;20.00;7.18;;;;;;;27.11;58.52;99935.09;4970354;28;20005;-80
2023/07/25 08:54:31;;;;;;;36.35;9.38;;;;;;;27.31;58.74;99983.53;4963339;28;20521;-80
2023/07/25 08:57:02;;;;;;;24.38;8.48;;;;;;;27.44;58.66;99977.59;4939641;28;20438;-77
2023/07/25 08:59:30;;;;;;;24.13;8.85;;;;;;;27.28;59.15;99967.69;4952727;28;20478;-80
2023/07/25 09:02:04;;;;;;;17.10;7.85;;;;;;;27.05;59.14;99917.91;4977820;28;20061;-79
2023/07/25 09:04:41;;;;;;;20.08;8.15;;;;;;;27.32;58.70;99968.81;4929282;28;20077;-79
2023/07/25 09:07:10;;;;;;;35.10;9.63;;;;;;;27.21;57.47;99934.38;4891914;28;20129;-80
2023/07/25 09:09:38;;;;;;;21.15;7.75;;;;;;;27.18;58.76;99940.34;4949699;28;20052;-79
2023/07/25 09:12:07;;;;;;;17.20;7.40;;;;;;;27.60;57.82;99964.91;4967361;28;20504;-81
2023/07/25 09:14:39;;;;;;;17.08;7.70;;;;;;;27.85;56.62;99925.22;4954635;28;20042;-80
2023/07/25 09:17:06;;;;;;;16.50;7.22;;;;;;;27.69;56.78;99913.38;4955341;28;20512;-80
2023/07/25 09:19:34;;;;;;;17.38;7.57;;;;;;;27.88;55.71;99862.75;4953731;28;20143;-78
2023/07/25 09:22:02;;;;;;;23.33;9.10;;;;;;;27.95;55.81;99905.34;4959820;28;20054;-80
2023/07/25 09:24:38;;;;;;;18.98;8.43;;;;;;;27.69;56.33;99883.38;4926939;28;20495;-79
2023/07/25 09:27:21;;;;;;;25.15;9.63;;;;;;;27.83;54.89;99872.84;4938764;28;20600;-80
2023/07/25 09:29:52;;;;;;;19.20;9.05;;;;;;;27.69;55.58;99881.47;4935554;28;20050;-80
2023/07/25 09:32:23;;;;;;;14.45;7.22;;;;;;;27.36;56.92;99871.81;4933440;28;20341;-79
2023/07/25 09:35:01;;;;;;;13.48;6.90;;;;;;;28.33;55.30;99883.03;4925950;28;20720;-80
2023/07/25 09:37:33;;;;;;;18.08;7.68;;;;;;;28.40;55.23;99884.66;4931600;28;20507;-80
2023/07/25 09:40:01;;;;;;;23.48;7.32;;;;;;;28.51;55.04;99875.44;4959385;28;20062;-80
2023/07/25 09:42:30;;;;;;;;;;;;;;;28.79;54.06;99875.94;4974523;28;20045;-80
2023/07/25 09:44:57;;;;;;;24.40;8.07;;;;;;;28.56;53.30;99872.69;4969289;28;20203;-81
2023/07/25 09:47:31;;;;;;;18.83;8.50;;;;;;;28.41;54.09;99848.09;4966145;28;20291;-81
2023/07/25 09:50:08;;;;;;;28.60;9.23;;;;;;;28.47;53.46;99830.66;4973101;28;20108;-80
2023/07/25 09:52:42;;;;;;;22.77;8.55;;;;;;;28.61;53.00;99829.00;4959782;28;20054;-79
2023/07/25 09:55:09;;;;;;;25.80;8.63;;;;;;;28.83;52.01;99849.72;4971486;28;20049;-80
2023/07/25 09:57:36;;;;;;;23.30;9.00;;;;;;;28.78;52.34;99820.50;4959869;28;20046;-78
2023/07/25 10:00:06;;;;;;;17.58;8.43;;;;;;;29.07;51.73;99837.13;4940484;28;20496;-79
2023/07/25 10:02:33;;;;;;;22.15;9.10;;;;;;;29.31;50.97;99847.44;4977434;28;20065;-79
2023/07/25 10:05:01;;;;;;;21.05;8.35;;;;;;;29.42;50.77;99812.69;4987257;28;20139;-79
2023/07/25 10:07:35;;;;;;;18.60;7.55;;;;;;;29.76;50.62;99829.22;4971691;28;20057;-77
2023/07/25 10:10:07;;;;;;;17.17;7.40;;;;;;;29.46;49.95;99794.63;4933145;28;20077;-81
2023/07/25 10:12:37;;;;;;;16.13;9.35;;;;;;;29.94;49.75;99806.66;4955701;28;20039;-80
2023/07/25 10:15:12;;;;;;;21.98;7.63;;;;;;;30.00;49.68;99813.75;4959096;28;20054;-79
2023/07/25 10:17:41;;;;;;;16.13;6.87;;;;;;;29.80;49.42;99786.50;4959509;28;20049;-81
2023/07/25 10:20:08;;;;;;;19.27;7.63;;;;;;;29.99;48.22;99806.63;4988269;28;20481;-81
2023/07/25 10:22:42;;;;;;;18.10;7.38;;;;;;;29.81;48.73;99711.56;4947014;28;20233;-79
2023/07/25 10:25:17;;;;;;;28.60;9.43;;;;;;;30.18;46.81;99784.06;4964807;28;20387;-77
2023/07/25 10:27:43;;;;;;;24.58;8.93;;;;;;;30.40;46.81;99802.78;4937800;28;20062;-80
2023/07/25 10:30:31;;;;;;;24.50;8.63;;;;;;;30.54;47.63;99786.50;4934193;28;20366;-78
2023/07/25 10:33:05;;;;;;;14.63;6.68;;;;;;;30.80;48.90;99784.31;4948325;28;20054;-78
2023/07/25 10:35:54;;;;;;;27.73;7.72;;;;;;;30.87;46.63;99785.59;4954254;28;20054;-78
2023/07/25 10:38:43;;;;;;;16.75;7.97;;;;;;;31.04;47.01;99782.41;4947801;28;20417;-79
2023/07/25 10:41:21;;;;;;;11.23;7.15;;;;;;;30.66;46.71;99699.28;4939977;28;20135;-81
2023/07/25 10:43:58;;;;;;;13.43;7.20;;;;;;;31.15;47.07;99774.88;4887455;28;20312;-81
2023/07/25 10:46:32;;;;;;;17.30;7.45;;;;;;;30.86;47.35;99737.41;4923128;28;20062;-78
2023/07/25 10:49:12;;;;;;;21.60;8.77;;;;;;;30.87;46.67;99755.47;4942924;28;20158;-80
2023/07/25 10:51:56;;;;;;;16.98;9.10;;;;;;;31.05;47.03;99750.34;4932758;28;20060;-79
2023/07/25 10:54:31;;;;;;;19.83;9.13;;;;;;;31.19;46.39;99743.03;4905085;28;20282;-79
2023/07/25 10:57:18;;;;;;;29.00;10.35;;;;;;;31.53;46.38;99747.50;4887577;28;20427;-79
2023/07/25 11:00:04;;;;;;;22.40;9.30;;;;;;;31.69;45.34;99743.44;4944902;28;20069;-78
2023/07/25 11:02:42;;;;;;;20.80;8.25;;;;;;;31.82;45.85;99724.59;4875931;28;20067;-81
2023/07/25 11:05:16;;;;;;;23.67;10.32;;;;;;;31.52;46.57;99734.94;4876598;28;20050;-81
2023/07/25 11:07:46;;;;;;;21.17;9.93;;;;;;;31.37;46.65;99724.16;4938860;28;20051;-81
2023/07/25 11:10:27;;;;;;;18.00;7.97;;;;;;;31.14;47.52;99693.75;4923730;28;20427;-80
2023/07/25 11:12:59;;;;;;;26.38;10.75;;;;;;;31.01;47.63;99692.56;4912772;28;20066;-79
2023/07/25 11:15:27;;;;;;;22.83;10.30;;;;;;;31.25;46.95;99678.00;4946391;28;20053;-79
2023/07/25 11:18:13;;;;;;;22.13;9.75;;;;;;;31.70;45.59;99695.72;4927807;28;20094;-80
2023/07/25 11:20:57;;;;;;;31.85;10.52;;;;;;;31.96;44.10;99684.31;4932884;28;20051;-81
2023/07/25 11:23:26;;;;;;;28.02;9.02;;;;;;;31.99;44.79;99653.50;4901416;29;20173;-81
2023/07/25 11:25:58;;;;;;;23.27;8.27;;;;;;;32.28;45.35;99688.13;4896607;28;20055;-80
2023/07/25 11:28:28;;;;;;;20.25;10.27;;;;;;;31.66;44.08;99623.34;4922064;28;20047;-80
2023/07/25 11:30:55;;;;;;;24.05;8.65;;;;;;;31.99;45.00;99677.41;4911794;28;20467;-79
2023/07/25 11:33:24;;;;;;;18.20;8.15;;;;;;;32.05;44.82;99652.31;4898736;28;20051;-81
2023/07/25 11:35:52;;;;;;;18.23;8.95;;;;;;;31.80;45.30;99655.47;4918040;28;20310;-80
2023/07/25 11:38:19;;;;;;;14.30;8.07;;;;;;;31.51;46.57;99664.75;4907520;28;20047;-80